sensor_id;sensor_type;location;lat;lon;timestamp;P1;durP1;ratioP1;P2;durP2;ratioP2
12892;SDS011;6514;48.606;9.222;2023-03-24T00:00:07;2.27;;;1.60;;
12892;SDS011;6514;48.606;9.222;2023-03-24T00:02:37;2.13;;;1.90;;
12892;SDS011;6514;48.606;9.222;2023-03-24T00:05:06;2.60;;;2.10;;
12892;SDS011;6514;48.606;9.222;2023-03-24T00:07:34;2.60;;;2.07;;
12892;SDS011;6514;48.606;9.222;2023-03-24T00:10:04;2.10;;;1.90;;
12892;SDS011;6514;48.606;9.222;2023-03-24T00:12:33;2.87;;;2.40;;
12892;SDS011;6514;48.606;9.222;2023-03-24T00:15:02;2.90;;;2.43;;
12892;SDS011;6514;48.606;9.222;2023-03-24T00:17:31;2.97;;;2.13;;
12892;SDS011;6514;48.606;9.222;2023-03-24T00:20:00;2.53;;;2.20;;
12892;SDS011;6514;48.606;9.222;2023-03-24T00:22:34;2.53;;;2.27;;
12892;SDS011;6514;48.606;9.222;2023-03-24T00:25:02;2.60;;;2.33;;
12892;SDS011;6514;48.606;9.222;2023-03-24T00:27:30;3.80;;;2.30;;
12892;SDS011;6514;48.606;9.222;2023-03-24T00:30:02;5.17;;;2.43;;
12892;SDS011;6514;48.606;9.222;2023-03-24T00:32:31;2.33;;;2.03;;
12892;SDS011;6514;48.606;9.222;2023-03-24T00:34:58;2.33;;;2.13;;
12892;SDS011;6514;48.606;9.222;2023-03-24T00:37:25;5.07;;;2.40;;
12892;SDS011;6514;48.606;9.222;2023-03-24T00:39:52;3.03;;;2.27;;
12892;SDS011;6514;48.606;9.222;2023-03-24T00:42:20;2.87;;;2.23;;
12892;SDS011;6514;48.606;9.222;2023-03-24T00:44:48;3.13;;;2.20;;
12892;SDS011;6514;48.606;9.222;2023-03-24T00:47:17;3.10;;;2.40;;
12892;SDS011;6514;48.606;9.222;2023-03-24T00:49:50;3.97;;;2.27;;
12892;SDS011;6514;48.606;9.222;2023-03-24T00:52:19;3.00;;;2.23;;
12892;SDS011;6514;48.606;9.222;2023-03-24T00:54:49;2.10;;;2.00;;
12892;SDS011;6514;48.606;9.222;2023-03-24T00:57:20;3.50;;;2.30;;
12892;SDS011;6514;48.606;9.222;2023-03-24T00:59:47;3.00;;;2.23;;
12892;SDS011;6514;48.606;9.222;2023-03-24T01:02:15;2.20;;;2.00;;
12892;SDS011;6514;48.606;9.222;2023-03-24T01:04:43;3.30;;;2.00;;
12892;SDS011;6514;48.606;9.222;2023-03-24T01:07:11;2.50;;;2.30;;
12892;SDS011;6514;48.606;9.222;2023-03-24T01:09:42;3.10;;;2.07;;
12892;SDS011;6514;48.606;9.222;2023-03-24T01:12:15;2.27;;;2.07;;
12892;SDS011;6514;48.606;9.222;2023-03-24T01:14:44;3.17;;;2.40;;
12892;SDS011;6514;48.606;9.222;2023-03-24T01:17:11;2.40;;;2.20;;
12892;SDS011;6514;48.606;9.222;2023-03-24T01:19:38;4.43;;;2.37;;
12892;SDS011;6514;48.606;9.222;2023-03-24T01:22:06;2.73;;;2.33;;
12892;SDS011;6514;48.606;9.222;2023-03-24T01:24:34;2.47;;;2.27;;
12892;SDS011;6514;48.606;9.222;2023-03-24T01:27:01;2.97;;;2.30;;
12892;SDS011;6514;48.606;9.222;2023-03-24T01:29:28;2.37;;;2.17;;
12892;SDS011;6514;48.606;9.222;2023-03-24T01:31:56;3.23;;;2.13;;
12892;SDS011;6514;48.606;9.222;2023-03-24T01:34:23;2.60;;;2.20;;
12892;SDS011;6514;48.606;9.222;2023-03-24T01:36:50;2.47;;;2.00;;
12892;SDS011;6514;48.606;9.222;2023-03-24T01:39:17;3.97;;;2.00;;
12892;SDS011;6514;48.606;9.222;2023-03-24T01:41:44;3.23;;;2.30;;
12892;SDS011;6514;48.606;9.222;2023-03-24T01:44:25;4.60;;;2.07;;
12892;SDS011;6514;48.606;9.222;2023-03-24T01:46:55;2.53;;;1.90;;
12892;SDS011;6514;48.606;9.222;2023-03-24T01:49:25;2.10;;;1.80;;
12892;SDS011;6514;48.606;9.222;2023-03-24T01:51:56;3.33;;;1.97;;
12892;SDS011;6514;48.606;9.222;2023-03-24T01:54:27;3.07;;;2.10;;
12892;SDS011;6514;48.606;9.222;2023-03-24T01:56:58;2.70;;;2.10;;
12892;SDS011;6514;48.606;9.222;2023-03-24T01:59:29;2.60;;;2.03;;
12892;SDS011;6514;48.606;9.222;2023-03-24T02:02:03;2.33;;;2.07;;
12892;SDS011;6514;48.606;9.222;2023-03-24T02:04:32;3.50;;;1.93;;
12892;SDS011;6514;48.606;9.222;2023-03-24T02:07:07;2.60;;;2.10;;
12892;SDS011;6514;48.606;9.222;2023-03-24T02:09:39;2.67;;;1.73;;
12892;SDS011;6514;48.606;9.222;2023-03-24T02:12:06;2.70;;;2.00;;
12892;SDS011;6514;48.606;9.222;2023-03-24T02:14:33;2.30;;;2.03;;
12892;SDS011;6514;48.606;9.222;2023-03-24T02:17:14;3.00;;;2.00;;
12892;SDS011;6514;48.606;9.222;2023-03-24T02:26:41;2.20;;;2.00;;
12892;SDS011;6514;48.606;9.222;2023-03-24T02:29:27;2.73;;;2.20;;
12892;SDS011;6514;48.606;9.222;2023-03-24T02:32:28;2.57;;;1.90;;
12892;SDS011;6514;48.606;9.222;2023-03-24T02:38:34;2.00;;;1.80;;
12892;SDS011;6514;48.606;9.222;2023-03-24T02:41:37;3.27;;;2.10;;
12892;SDS011;6514;48.606;9.222;2023-03-24T02:44:09;2.07;;;1.87;;
12892;SDS011;6514;48.606;9.222;2023-03-24T02:46:45;3.77;;;2.40;;
12892;SDS011;6514;48.606;9.222;2023-03-24T02:49:18;2.27;;;2.00;;
12892;SDS011;6514;48.606;9.222;2023-03-24T02:51:51;2.73;;;2.13;;
12892;SDS011;6514;48.606;9.222;2023-03-24T02:54:27;2.43;;;2.13;;
12892;SDS011;6514;48.606;9.222;2023-03-24T02:57:03;2.37;;;2.07;;
12892;SDS011;6514;48.606;9.222;2023-03-24T02:59:35;2.10;;;1.90;;
12892;SDS011;6514;48.606;9.222;2023-03-24T03:02:07;2.17;;;1.97;;
12892;SDS011;6514;48.606;9.222;2023-03-24T03:04:38;3.00;;;2.07;;
12892;SDS011;6514;48.606;9.222;2023-03-24T03:07:10;2.00;;;1.80;;
12892;SDS011;6514;48.606;9.222;2023-03-24T03:09:42;1.97;;;1.77;;
12892;SDS011;6514;48.606;9.222;2023-03-24T03:12:15;2.13;;;1.93;;
12892;SDS011;6514;48.606;9.222;2023-03-24T03:14:45;2.20;;;2.00;;
12892;SDS011;6514;48.606;9.222;2023-03-24T03:17:17;3.37;;;1.80;;
12892;SDS011;6514;48.606;9.222;2023-03-24T03:19:48;2.00;;;1.80;;
12892;SDS011;6514;48.606;9.222;2023-03-24T03:22:20;2.10;;;1.90;;
12892;SDS011;6514;48.606;9.222;2023-03-24T03:24:51;3.97;;;2.10;;
12892;SDS011;6514;48.606;9.222;2023-03-24T03:27:23;1.90;;;1.70;;
12892;SDS011;6514;48.606;9.222;2023-03-24T03:29:56;1.60;;;1.50;;
12892;SDS011;6514;48.606;9.222;2023-03-24T03:32:27;3.40;;;1.70;;
12892;SDS011;6514;48.606;9.222;2023-03-24T03:34:59;3.07;;;1.93;;
12892;SDS011;6514;48.606;9.222;2023-03-24T03:37:32;2.10;;;1.37;;
12892;SDS011;6514;48.606;9.222;2023-03-24T03:40:04;2.13;;;1.93;;
12892;SDS011;6514;48.606;9.222;2023-03-24T03:42:37;2.07;;;1.77;;
12892;SDS011;6514;48.606;9.222;2023-03-24T03:45:06;2.40;;;1.50;;
12892;SDS011;6514;48.606;9.222;2023-03-24T03:47:34;3.03;;;2.00;;
12892;SDS011;6514;48.606;9.222;2023-03-24T03:50:01;2.23;;;1.70;;
12892;SDS011;6514;48.606;9.222;2023-03-24T03:52:29;1.60;;;1.50;;
12892;SDS011;6514;48.606;9.222;2023-03-24T03:54:56;2.23;;;1.43;;
12892;SDS011;6514;48.606;9.222;2023-03-24T03:57:24;1.50;;;1.40;;
12892;SDS011;6514;48.606;9.222;2023-03-24T03:59:53;1.83;;;1.40;;
12892;SDS011;6514;48.606;9.222;2023-03-24T04:02:27;2.53;;;1.70;;
12892;SDS011;6514;48.606;9.222;2023-03-24T04:05:08;1.83;;;1.63;;
12892;SDS011;6514;48.606;9.222;2023-03-24T04:07:49;1.63;;;1.53;;
12892;SDS011;6514;48.606;9.222;2023-03-24T04:10:36;3.13;;;1.70;;
12892;SDS011;6514;48.606;9.222;2023-03-24T04:13:19;1.90;;;1.80;;
12892;SDS011;6514;48.606;9.222;2023-03-24T04:15:53;2.50;;;1.53;;
12892;SDS011;6514;48.606;9.222;2023-03-24T04:18:24;1.53;;;1.43;;
12892;SDS011;6514;48.606;9.222;2023-03-24T04:21:07;2.87;;;1.80;;
12892;SDS011;6514;48.606;9.222;2023-03-24T04:24:04;2.67;;;1.50;;
12892;SDS011;6514;48.606;9.222;2023-03-24T04:26:42;2.40;;;1.67;;
12892;SDS011;6514;48.606;9.222;2023-03-24T04:29:19;1.80;;;1.60;;
12892;SDS011;6514;48.606;9.222;2023-03-24T04:31:56;2.50;;;1.70;;
12892;SDS011;6514;48.606;9.222;2023-03-24T04:34:31;3.47;;;1.50;;
12892;SDS011;6514;48.606;9.222;2023-03-24T04:37:02;1.50;;;1.40;;
12892;SDS011;6514;48.606;9.222;2023-03-24T04:39:34;1.97;;;1.50;;
12892;SDS011;6514;48.606;9.222;2023-03-24T04:42:04;2.40;;;1.70;;
12892;SDS011;6514;48.606;9.222;2023-03-24T04:44:34;2.27;;;1.70;;
12892;SDS011;6514;48.606;9.222;2023-03-24T04:47:03;2.03;;;1.47;;
12892;SDS011;6514;48.606;9.222;2023-03-24T04:49:31;1.97;;;1.83;;
12892;SDS011;6514;48.606;9.222;2023-03-24T04:52:03;2.10;;;1.53;;
12892;SDS011;6514;48.606;9.222;2023-03-24T04:54:30;2.83;;;1.73;;
12892;SDS011;6514;48.606;9.222;2023-03-24T04:56:58;1.50;;;1.40;;
12892;SDS011;6514;48.606;9.222;2023-03-24T04:59:27;1.70;;;1.60;;
12892;SDS011;6514;48.606;9.222;2023-03-24T05:01:54;1.97;;;1.60;;
12892;SDS011;6514;48.606;9.222;2023-03-24T05:04:23;2.70;;;1.80;;
12892;SDS011;6514;48.606;9.222;2023-03-24T05:06:51;2.67;;;1.60;;
12892;SDS011;6514;48.606;9.222;2023-03-24T05:09:18;2.87;;;2.00;;
12892;SDS011;6514;48.606;9.222;2023-03-24T05:11:46;1.60;;;1.50;;
12892;SDS011;6514;48.606;9.222;2023-03-24T05:14:13;2.17;;;1.70;;
12892;SDS011;6514;48.606;9.222;2023-03-24T05:16:40;1.90;;;1.70;;
12892;SDS011;6514;48.606;9.222;2023-03-24T05:19:07;2.20;;;1.90;;
12892;SDS011;6514;48.606;9.222;2023-03-24T05:21:36;3.63;;;1.77;;
12892;SDS011;6514;48.606;9.222;2023-03-24T05:24:03;1.70;;;1.53;;
12892;SDS011;6514;48.606;9.222;2023-03-24T05:26:30;2.40;;;1.77;;
12892;SDS011;6514;48.606;9.222;2023-03-24T05:28:58;2.73;;;1.80;;
12892;SDS011;6514;48.606;9.222;2023-03-24T05:31:25;2.47;;;1.60;;
12892;SDS011;6514;48.606;9.222;2023-03-24T05:33:51;4.37;;;1.70;;
12892;SDS011;6514;48.606;9.222;2023-03-24T05:36:19;2.50;;;2.10;;
12892;SDS011;6514;48.606;9.222;2023-03-24T05:38:47;4.00;;;1.70;;
12892;SDS011;6514;48.606;9.222;2023-03-24T05:41:14;2.10;;;1.90;;
12892;SDS011;6514;48.606;9.222;2023-03-24T05:43:41;5.00;;;2.17;;
12892;SDS011;6514;48.606;9.222;2023-03-24T05:46:08;3.50;;;2.30;;
12892;SDS011;6514;48.606;9.222;2023-03-24T05:48:35;2.37;;;1.97;;
12892;SDS011;6514;48.606;9.222;2023-03-24T05:51:02;2.67;;;2.17;;
12892;SDS011;6514;48.606;9.222;2023-03-24T05:53:28;2.33;;;2.10;;
12892;SDS011;6514;48.606;9.222;2023-03-24T05:55:57;2.57;;;2.30;;
12892;SDS011;6514;48.606;9.222;2023-03-24T05:58:24;2.50;;;2.07;;
12892;SDS011;6514;48.606;9.222;2023-03-24T06:00:51;2.40;;;2.20;;
12892;SDS011;6514;48.606;9.222;2023-03-24T06:03:18;3.07;;;2.27;;
12892;SDS011;6514;48.606;9.222;2023-03-24T06:05:45;3.60;;;2.13;;
12892;SDS011;6514;48.606;9.222;2023-03-24T06:08:12;3.70;;;2.13;;
12892;SDS011;6514;48.606;9.222;2023-03-24T06:10:40;3.53;;;2.37;;
12892;SDS011;6514;48.606;9.222;2023-03-24T06:13:09;3.33;;;2.30;;
12892;SDS011;6514;48.606;9.222;2023-03-24T06:15:36;2.77;;;2.33;;
12892;SDS011;6514;48.606;9.222;2023-03-24T06:18:03;3.30;;;2.50;;
12892;SDS011;6514;48.606;9.222;2023-03-24T06:20:30;2.63;;;2.20;;
12892;SDS011;6514;48.606;9.222;2023-03-24T06:22:57;2.93;;;2.60;;
12892;SDS011;6514;48.606;9.222;2023-03-24T06:25:24;2.97;;;2.67;;
12892;SDS011;6514;48.606;9.222;2023-03-24T06:27:52;3.23;;;2.83;;
12892;SDS011;6514;48.606;9.222;2023-03-24T06:30:20;3.67;;;3.37;;
12892;SDS011;6514;48.606;9.222;2023-03-24T06:32:47;5.20;;;4.50;;
12892;SDS011;6514;48.606;9.222;2023-03-24T06:35:15;4.17;;;3.77;;
12892;SDS011;6514;48.606;9.222;2023-03-24T06:37:42;13.03;;;8.43;;
12892;SDS011;6514;48.606;9.222;2023-03-24T06:40:10;12.13;;;8.93;;
12892;SDS011;6514;48.606;9.222;2023-03-24T06:42:40;5.73;;;4.97;;
12892;SDS011;6514;48.606;9.222;2023-03-24T06:45:07;4.20;;;3.70;;
12892;SDS011;6514;48.606;9.222;2023-03-24T06:47:36;3.60;;;3.30;;
12892;SDS011;6514;48.606;9.222;2023-03-24T06:50:03;4.43;;;3.20;;
12892;SDS011;6514;48.606;9.222;2023-03-24T06:52:32;5.47;;;4.33;;
12892;SDS011;6514;48.606;9.222;2023-03-24T06:54:59;3.93;;;3.50;;
12892;SDS011;6514;48.606;9.222;2023-03-24T06:57:26;3.57;;;3.27;;
12892;SDS011;6514;48.606;9.222;2023-03-24T06:59:53;6.10;;;3.37;;
12892;SDS011;6514;48.606;9.222;2023-03-24T07:02:20;4.83;;;4.00;;
12892;SDS011;6514;48.606;9.222;2023-03-24T07:04:49;3.57;;;2.63;;
12892;SDS011;6514;48.606;9.222;2023-03-24T07:07:18;3.70;;;3.10;;
12892;SDS011;6514;48.606;9.222;2023-03-24T07:09:46;2.67;;;2.30;;
12892;SDS011;6514;48.606;9.222;2023-03-24T07:12:14;4.20;;;3.80;;
12892;SDS011;6514;48.606;9.222;2023-03-24T07:14:41;3.27;;;2.97;;
12892;SDS011;6514;48.606;9.222;2023-03-24T07:17:08;4.67;;;3.13;;
12892;SDS011;6514;48.606;9.222;2023-03-24T07:19:34;2.63;;;2.37;;
12892;SDS011;6514;48.606;9.222;2023-03-24T07:22:03;3.90;;;3.53;;
12892;SDS011;6514;48.606;9.222;2023-03-24T07:24:32;9.30;;;6.63;;
12892;SDS011;6514;48.606;9.222;2023-03-24T07:26:59;4.60;;;3.87;;
12892;SDS011;6514;48.606;9.222;2023-03-24T07:29:26;5.53;;;4.23;;
12892;SDS011;6514;48.606;9.222;2023-03-24T07:31:53;6.67;;;5.10;;
12892;SDS011;6514;48.606;9.222;2023-03-24T07:34:22;4.13;;;3.43;;
12892;SDS011;6514;48.606;9.222;2023-03-24T07:36:50;5.87;;;4.13;;
12892;SDS011;6514;48.606;9.222;2023-03-24T07:39:18;4.90;;;3.63;;
12892;SDS011;6514;48.606;9.222;2023-03-24T07:41:46;6.00;;;4.30;;
12892;SDS011;6514;48.606;9.222;2023-03-24T07:44:13;4.33;;;3.90;;
12892;SDS011;6514;48.606;9.222;2023-03-24T07:46:40;4.77;;;4.20;;
12892;SDS011;6514;48.606;9.222;2023-03-24T07:49:07;3.77;;;3.30;;
12892;SDS011;6514;48.606;9.222;2023-03-24T07:51:33;4.37;;;3.90;;
12892;SDS011;6514;48.606;9.222;2023-03-24T07:54:00;4.37;;;3.37;;
12892;SDS011;6514;48.606;9.222;2023-03-24T07:56:29;4.30;;;3.50;;
12892;SDS011;6514;48.606;9.222;2023-03-24T07:58:56;5.43;;;4.10;;
12892;SDS011;6514;48.606;9.222;2023-03-24T08:01:22;5.00;;;3.60;;
12892;SDS011;6514;48.606;9.222;2023-03-24T08:03:49;4.03;;;3.40;;
12892;SDS011;6514;48.606;9.222;2023-03-24T08:06:18;3.83;;;3.00;;
12892;SDS011;6514;48.606;9.222;2023-03-24T08:08:45;4.33;;;3.17;;
12892;SDS011;6514;48.606;9.222;2023-03-24T08:11:12;5.00;;;3.47;;
12892;SDS011;6514;48.606;9.222;2023-03-24T08:13:40;3.63;;;3.10;;
12892;SDS011;6514;48.606;9.222;2023-03-24T08:16:07;3.57;;;3.27;;
12892;SDS011;6514;48.606;9.222;2023-03-24T08:18:34;4.37;;;3.63;;
12892;SDS011;6514;48.606;9.222;2023-03-24T08:21:01;3.73;;;3.40;;
12892;SDS011;6514;48.606;9.222;2023-03-24T08:23:28;4.63;;;3.63;;
12892;SDS011;6514;48.606;9.222;2023-03-24T08:25:55;3.70;;;3.37;;
12892;SDS011;6514;48.606;9.222;2023-03-24T08:28:22;4.33;;;3.93;;
12892;SDS011;6514;48.606;9.222;2023-03-24T08:30:50;3.53;;;3.23;;
12892;SDS011;6514;48.606;9.222;2023-03-24T08:33:17;4.80;;;3.37;;
12892;SDS011;6514;48.606;9.222;2023-03-24T08:35:44;4.43;;;3.77;;
12892;SDS011;6514;48.606;9.222;2023-03-24T08:38:11;4.83;;;3.90;;
12892;SDS011;6514;48.606;9.222;2023-03-24T08:40:39;3.80;;;3.50;;
12892;SDS011;6514;48.606;9.222;2023-03-24T08:43:08;4.23;;;3.70;;
12892;SDS011;6514;48.606;9.222;2023-03-24T08:45:38;6.47;;;3.33;;
12892;SDS011;6514;48.606;9.222;2023-03-24T08:48:06;4.33;;;3.20;;
12892;SDS011;6514;48.606;9.222;2023-03-24T08:50:36;5.63;;;3.40;;
12892;SDS011;6514;48.606;9.222;2023-03-24T08:53:04;4.40;;;3.30;;
12892;SDS011;6514;48.606;9.222;2023-03-24T08:55:31;4.07;;;3.67;;
12892;SDS011;6514;48.606;9.222;2023-03-24T08:57:58;6.80;;;3.60;;
12892;SDS011;6514;48.606;9.222;2023-03-24T09:00:25;4.83;;;4.07;;
12892;SDS011;6514;48.606;9.222;2023-03-24T09:02:53;4.20;;;3.80;;
12892;SDS011;6514;48.606;9.222;2023-03-24T09:05:22;5.03;;;3.73;;
12892;SDS011;6514;48.606;9.222;2023-03-24T09:07:50;4.73;;;4.13;;
12892;SDS011;6514;48.606;9.222;2023-03-24T09:10:17;7.40;;;4.10;;
12892;SDS011;6514;48.606;9.222;2023-03-24T09:12:46;4.43;;;4.03;;
12892;SDS011;6514;48.606;9.222;2023-03-24T09:15:13;4.57;;;3.87;;
12892;SDS011;6514;48.606;9.222;2023-03-24T09:17:40;4.43;;;4.03;;
12892;SDS011;6514;48.606;9.222;2023-03-24T09:20:09;5.40;;;4.07;;
12892;SDS011;6514;48.606;9.222;2023-03-24T09:22:39;5.83;;;3.70;;
12892;SDS011;6514;48.606;9.222;2023-03-24T09:25:08;6.40;;;4.10;;
12892;SDS011;6514;48.606;9.222;2023-03-24T09:27:36;5.37;;;3.90;;
12892;SDS011;6514;48.606;9.222;2023-03-24T09:30:04;4.33;;;3.50;;
12892;SDS011;6514;48.606;9.222;2023-03-24T09:32:33;4.70;;;3.07;;
12892;SDS011;6514;48.606;9.222;2023-03-24T09:35:01;4.33;;;3.17;;
12892;SDS011;6514;48.606;9.222;2023-03-24T09:37:28;3.30;;;2.70;;
12892;SDS011;6514;48.606;9.222;2023-03-24T09:39:57;2.63;;;2.43;;
12892;SDS011;6514;48.606;9.222;2023-03-24T09:42:26;2.23;;;2.00;;
12892;SDS011;6514;48.606;9.222;2023-03-24T09:44:56;2.40;;;1.80;;
12892;SDS011;6514;48.606;9.222;2023-03-24T09:47:25;2.20;;;2.00;;
12892;SDS011;6514;48.606;9.222;2023-03-24T09:49:56;2.37;;;2.13;;
12892;SDS011;6514;48.606;9.222;2023-03-24T09:52:28;1.73;;;1.60;;
12892;SDS011;6514;48.606;9.222;2023-03-24T09:55:01;1.40;;;1.30;;
12892;SDS011;6514;48.606;9.222;2023-03-24T09:57:32;2.47;;;1.53;;
12892;SDS011;6514;48.606;9.222;2023-03-24T10:00:07;1.67;;;1.40;;
12892;SDS011;6514;48.606;9.222;2023-03-24T10:02:41;1.70;;;1.47;;
12892;SDS011;6514;48.606;9.222;2023-03-24T10:05:11;1.40;;;1.30;;
12892;SDS011;6514;48.606;9.222;2023-03-24T10:07:42;1.30;;;1.20;;
12892;SDS011;6514;48.606;9.222;2023-03-24T10:10:18;2.20;;;1.20;;
12892;SDS011;6514;48.606;9.222;2023-03-24T10:12:53;1.00;;;0.90;;
12892;SDS011;6514;48.606;9.222;2023-03-24T10:15:28;0.90;;;0.90;;
12892;SDS011;6514;48.606;9.222;2023-03-24T10:18:00;2.00;;;1.07;;
12892;SDS011;6514;48.606;9.222;2023-03-24T10:20:39;1.17;;;0.80;;
12892;SDS011;6514;48.606;9.222;2023-03-24T10:23:15;1.10;;;1.07;;
12892;SDS011;6514;48.606;9.222;2023-03-24T10:25:50;1.03;;;1.00;;
12892;SDS011;6514;48.606;9.222;2023-03-24T10:28:20;1.60;;;1.03;;
12892;SDS011;6514;48.606;9.222;2023-03-24T10:30:50;2.03;;;1.00;;
12892;SDS011;6514;48.606;9.222;2023-03-24T10:33:20;1.13;;;1.07;;
12892;SDS011;6514;48.606;9.222;2023-03-24T10:35:49;1.10;;;1.00;;
12892;SDS011;6514;48.606;9.222;2023-03-24T10:38:22;2.70;;;1.37;;
12892;SDS011;6514;48.606;9.222;2023-03-24T10:40:50;1.70;;;1.10;;
12892;SDS011;6514;48.606;9.222;2023-03-24T10:43:19;0.80;;;0.80;;
12892;SDS011;6514;48.606;9.222;2023-03-24T10:45:48;1.33;;;0.93;;
12892;SDS011;6514;48.606;9.222;2023-03-24T10:48:32;1.67;;;1.00;;
12892;SDS011;6514;48.606;9.222;2023-03-24T10:51:01;1.00;;;0.80;;
12892;SDS011;6514;48.606;9.222;2023-03-24T10:53:30;1.10;;;0.87;;
12892;SDS011;6514;48.606;9.222;2023-03-24T10:55:58;1.07;;;1.00;;
12892;SDS011;6514;48.606;9.222;2023-03-24T10:58:28;1.17;;;0.80;;
12892;SDS011;6514;48.606;9.222;2023-03-24T11:01:01;1.03;;;0.90;;
12892;SDS011;6514;48.606;9.222;2023-03-24T11:03:29;1.17;;;1.00;;
12892;SDS011;6514;48.606;9.222;2023-03-24T11:05:58;0.87;;;0.80;;
12892;SDS011;6514;48.606;9.222;2023-03-24T11:08:27;0.80;;;0.77;;
12892;SDS011;6514;48.606;9.222;2023-03-24T11:11:01;0.83;;;0.83;;
12892;SDS011;6514;48.606;9.222;2023-03-24T11:13:38;1.47;;;0.80;;
12892;SDS011;6514;48.606;9.222;2023-03-24T11:16:09;1.93;;;0.97;;
12892;SDS011;6514;48.606;9.222;2023-03-24T11:18:40;0.80;;;0.80;;
12892;SDS011;6514;48.606;9.222;2023-03-24T11:21:20;0.70;;;0.70;;
12892;SDS011;6514;48.606;9.222;2023-03-24T11:23:48;0.87;;;0.83;;
12892;SDS011;6514;48.606;9.222;2023-03-24T11:26:17;1.27;;;0.80;;
12892;SDS011;6514;48.606;9.222;2023-03-24T11:28:48;1.43;;;0.93;;
12892;SDS011;6514;48.606;9.222;2023-03-24T11:31:20;0.87;;;0.80;;
12892;SDS011;6514;48.606;9.222;2023-03-24T11:33:50;0.80;;;0.80;;
12892;SDS011;6514;48.606;9.222;2023-03-24T11:36:35;0.67;;;0.67;;
12892;SDS011;6514;48.606;9.222;2023-03-24T11:39:10;1.30;;;0.83;;
12892;SDS011;6514;48.606;9.222;2023-03-24T11:41:42;0.60;;;0.60;;
12892;SDS011;6514;48.606;9.222;2023-03-24T11:44:16;0.60;;;0.60;;
12892;SDS011;6514;48.606;9.222;2023-03-24T11:46:45;0.97;;;0.67;;
12892;SDS011;6514;48.606;9.222;2023-03-24T11:49:15;1.83;;;1.40;;
12892;SDS011;6514;48.606;9.222;2023-03-24T11:51:46;0.53;;;0.50;;
12892;SDS011;6514;48.606;9.222;2023-03-24T11:54:17;1.70;;;0.70;;
12892;SDS011;6514;48.606;9.222;2023-03-24T11:56:48;1.90;;;0.80;;
12892;SDS011;6514;48.606;9.222;2023-03-24T11:59:24;1.07;;;0.97;;
12892;SDS011;6514;48.606;9.222;2023-03-24T12:01:57;1.63;;;0.90;;
12892;SDS011;6514;48.606;9.222;2023-03-24T12:04:38;1.30;;;0.90;;
12892;SDS011;6514;48.606;9.222;2023-03-24T12:10:17;0.80;;;0.80;;
12892;SDS011;6514;48.606;9.222;2023-03-24T12:12:57;1.43;;;0.83;;
12892;SDS011;6514;48.606;9.222;2023-03-24T12:15:39;1.67;;;1.10;;
12892;SDS011;6514;48.606;9.222;2023-03-24T12:21:06;1.27;;;1.10;;
12892;SDS011;6514;48.606;9.222;2023-03-24T12:23:55;0.70;;;0.53;;
12892;SDS011;6514;48.606;9.222;2023-03-24T12:26:24;1.40;;;1.20;;
12892;SDS011;6514;48.606;9.222;2023-03-24T12:29:16;0.87;;;0.60;;
12892;SDS011;6514;48.606;9.222;2023-03-24T12:32:00;3.07;;;1.50;;
12892;SDS011;6514;48.606;9.222;2023-03-24T12:37:27;1.00;;;0.50;;
12892;SDS011;6514;48.606;9.222;2023-03-24T12:40:03;0.70;;;0.50;;
12892;SDS011;6514;48.606;9.222;2023-03-24T12:42:45;0.73;;;0.60;;
12892;SDS011;6514;48.606;9.222;2023-03-24T12:45:18;0.50;;;0.50;;
12892;SDS011;6514;48.606;9.222;2023-03-24T12:50:51;0.43;;;0.43;;
12892;SDS011;6514;48.606;9.222;2023-03-24T12:53:30;0.70;;;0.43;;
12892;SDS011;6514;48.606;9.222;2023-03-24T12:56:13;0.40;;;0.40;;
12892;SDS011;6514;48.606;9.222;2023-03-24T12:58:43;0.50;;;0.50;;
12892;SDS011;6514;48.606;9.222;2023-03-24T13:01:18;0.40;;;0.40;;
12892;SDS011;6514;48.606;9.222;2023-03-24T13:03:54;0.57;;;0.57;;
12892;SDS011;6514;48.606;9.222;2023-03-24T13:06:26;0.50;;;0.50;;
12892;SDS011;6514;48.606;9.222;2023-03-24T13:09:02;0.60;;;0.40;;
12892;SDS011;6514;48.606;9.222;2023-03-24T13:11:40;0.57;;;0.57;;
12892;SDS011;6514;48.606;9.222;2023-03-24T13:14:16;0.40;;;0.40;;
12892;SDS011;6514;48.606;9.222;2023-03-24T13:16:49;0.67;;;0.40;;
12892;SDS011;6514;48.606;9.222;2023-03-24T13:19:17;0.40;;;0.40;;
12892;SDS011;6514;48.606;9.222;2023-03-24T13:21:48;1.67;;;0.60;;
12892;SDS011;6514;48.606;9.222;2023-03-24T13:24:17;1.43;;;0.40;;
12892;SDS011;6514;48.606;9.222;2023-03-24T13:26:46;0.30;;;0.30;;
12892;SDS011;6514;48.606;9.222;2023-03-24T13:29:31;0.50;;;0.50;;
12892;SDS011;6514;48.606;9.222;2023-03-24T13:32:26;1.43;;;0.60;;
12892;SDS011;6514;48.606;9.222;2023-03-24T13:34:57;0.50;;;0.50;;
12892;SDS011;6514;48.606;9.222;2023-03-24T13:37:31;0.33;;;0.33;;
12892;SDS011;6514;48.606;9.222;2023-03-24T13:40:04;0.87;;;0.47;;
12892;SDS011;6514;48.606;9.222;2023-03-24T13:42:36;0.60;;;0.60;;
12892;SDS011;6514;48.606;9.222;2023-03-24T13:45:20;1.27;;;0.50;;
12892;SDS011;6514;48.606;9.222;2023-03-24T13:48:05;0.90;;;0.47;;
12892;SDS011;6514;48.606;9.222;2023-03-24T13:50:49;0.50;;;0.50;;
12892;SDS011;6514;48.606;9.222;2023-03-24T13:53:23;1.07;;;0.40;;
12892;SDS011;6514;48.606;9.222;2023-03-24T13:55:58;0.57;;;0.40;;
12892;SDS011;6514;48.606;9.222;2023-03-24T13:58:26;2.57;;;0.60;;
12892;SDS011;6514;48.606;9.222;2023-03-24T14:01:30;0.40;;;0.40;;
12892;SDS011;6514;48.606;9.222;2023-03-24T14:06:54;0.67;;;0.60;;
12892;SDS011;6514;48.606;9.222;2023-03-24T14:09:23;1.13;;;1.03;;
12892;SDS011;6514;48.606;9.222;2023-03-24T14:12:08;1.00;;;1.00;;
12892;SDS011;6514;48.606;9.222;2023-03-24T14:17:39;1.37;;;1.23;;
12892;SDS011;6514;48.606;9.222;2023-03-24T14:20:15;1.90;;;1.43;;
12892;SDS011;6514;48.606;9.222;2023-03-24T14:22:52;1.57;;;0.73;;
12892;SDS011;6514;48.606;9.222;2023-03-24T14:25:23;0.50;;;0.50;;
12892;SDS011;6514;48.606;9.222;2023-03-24T14:27:53;0.70;;;0.70;;
12892;SDS011;6514;48.606;9.222;2023-03-24T14:34:01;0.87;;;0.50;;
12892;SDS011;6514;48.606;9.222;2023-03-24T14:36:39;0.60;;;0.60;;
12892;SDS011;6514;48.606;9.222;2023-03-24T14:39:10;0.57;;;0.57;;
12892;SDS011;6514;48.606;9.222;2023-03-24T14:41:45;0.53;;;0.53;;
12892;SDS011;6514;48.606;9.222;2023-03-24T14:44:16;1.57;;;0.83;;
12892;SDS011;6514;48.606;9.222;2023-03-24T14:47:21;0.80;;;0.73;;
12892;SDS011;6514;48.606;9.222;2023-03-24T14:49:51;2.67;;;0.80;;
12892;SDS011;6514;48.606;9.222;2023-03-24T14:52:20;0.73;;;0.67;;
12892;SDS011;6514;48.606;9.222;2023-03-24T14:54:52;0.63;;;0.53;;
12892;SDS011;6514;48.606;9.222;2023-03-24T14:57:22;1.27;;;0.50;;
12892;SDS011;6514;48.606;9.222;2023-03-24T14:59:56;0.80;;;0.70;;
12892;SDS011;6514;48.606;9.222;2023-03-24T15:02:32;1.40;;;0.70;;
12892;SDS011;6514;48.606;9.222;2023-03-24T15:05:21;0.60;;;0.60;;
12892;SDS011;6514;48.606;9.222;2023-03-24T15:07:58;2.13;;;0.63;;
12892;SDS011;6514;48.606;9.222;2023-03-24T15:10:30;0.43;;;0.43;;
12892;SDS011;6514;48.606;9.222;2023-03-24T15:13:01;0.70;;;0.40;;
12892;SDS011;6514;48.606;9.222;2023-03-24T15:15:29;0.50;;;0.50;;
12892;SDS011;6514;48.606;9.222;2023-03-24T15:17:56;2.57;;;0.63;;
12892;SDS011;6514;48.606;9.222;2023-03-24T15:20:24;0.47;;;0.47;;
12892;SDS011;6514;48.606;9.222;2023-03-24T15:22:52;3.73;;;0.80;;
12892;SDS011;6514;48.606;9.222;2023-03-24T15:25:23;1.03;;;0.70;;
12892;SDS011;6514;48.606;9.222;2023-03-24T15:27:52;0.70;;;0.53;;
12892;SDS011;6514;48.606;9.222;2023-03-24T15:30:19;1.00;;;0.70;;
12892;SDS011;6514;48.606;9.222;2023-03-24T15:32:48;0.80;;;0.60;;
12892;SDS011;6514;48.606;9.222;2023-03-24T15:35:16;0.63;;;0.50;;
12892;SDS011;6514;48.606;9.222;2023-03-24T15:37:49;0.60;;;0.50;;
12892;SDS011;6514;48.606;9.222;2023-03-24T15:40:31;0.57;;;0.57;;
12892;SDS011;6514;48.606;9.222;2023-03-24T15:43:00;1.03;;;0.40;;
12892;SDS011;6514;48.606;9.222;2023-03-24T15:45:29;3.70;;;0.83;;
12892;SDS011;6514;48.606;9.222;2023-03-24T15:48:01;0.57;;;0.57;;
12892;SDS011;6514;48.606;9.222;2023-03-24T15:50:32;1.70;;;0.80;;
12892;SDS011;6514;48.606;9.222;2023-03-24T15:53:01;1.67;;;0.70;;
12892;SDS011;6514;48.606;9.222;2023-03-24T15:55:31;1.30;;;0.90;;